CDT,Max TemperatureF,Mean TemperatureF,Min TemperatureF,Max Dew PointF,MeanDew PointF,Min DewpointF,Max Humidity, Mean Humidity, Min Humidity, Max Sea Level PressureIn, Mean Sea Level PressureIn, Min Sea Level PressureIn, Max VisibilityMiles, Mean VisibilityMiles, Min VisibilityMiles, Max Wind SpeedMPH, Mean Wind SpeedMPH, Max Gust SpeedMPH,PrecipitationIn, CloudCover, Events, WindDirDegrees
2012-8-1,93,76,60,66,61,55,88,61,34,30.01,29.96,29.88,10,10,5,9,4,,0.00,0,,215
2012-8-2,91,78,64,64,62,57,83,58,36,29.93,29.87,29.83,10,10,7,10,6,16,0.00,0,,100
2012-8-3,95,78,62,70,64,57,88,62,34,29.91,29.88,29.85,10,10,5,13,7,17,0.00,0,,100
2012-8-4,89,78,66,73,66,63,88,75,55,29.98,29.89,29.79,10,10,2,33,6,56,1.38,1,Thunderstorm,84
2012-8-5,73,71,71,61,61,61,69,67,65,30.19,30.11,29.99,10,10,5,12,7,17,0.00,0,,312
2012-8-6,82,68,53,59,55,48,88,58,35,30.21,30.13,30.03,10,10,10,8,3,,0.00,0,,287
2012-8-7,91,78,68,66,63,57,73,50,43,30.03,29.99,29.95,10,10,10,13,5,17,0.00,0,,251
2012-8-8,73,68,64,66,62,57,88,81,73,30.05,29.99,29.94,10,10,6,15,7,,0.02,1,,43
2012-8-9,71,68,68,66,65,64,88,86,78,29.96,29.94,29.91,10,9,5,12,6,,0.04,4,,77
2012-8-10,78,68,55,54,52,50,88,54,36,30.04,30.02,30.01,10,10,10,21,13,25,0.00,0,,7
2012-8-11,77,64,51,55,50,45,88,64,34,30.10,30.05,30.02,10,10,10,13,8,17,0.00,0,,342
2012-8-12,71,62,53,61,55,48,94,77,56,30.07,30.03,29.98,10,10,10,8,3,,0.15,3,,75
2012-8-13,71,66,59,61,59,55,94,85,60,30.01,29.99,29.96,10,9,4,15,7,,0.34,5,,58
2012-8-14,80,68,55,64,59,54,100,76,45,30.01,29.97,29.93,10,8,1,10,5,,0.00,0,,273
2012-8-15,84,73,62,66,60,55,94,68,37,29.99,29.93,29.85,10,10,2,15,6,21,0.00,1,,212
2012-8-16,75,66,57,66,58,52,88,68,50,30.02,29.89,29.73,10,10,10,21,12,28,0.39,2,Thunderstorm,289
2012-8-17,73,60,48,55,50,46,94,67,38,30.09,30.05,30.01,10,10,10,12,6,,0.00,0,,312
2012-8-18,73,60,48,57,50,45,93,66,36,30.06,30.02,29.97,10,10,10,10,5,,0.00,0,,344
2012-8-19,75,64,53,57,53,48,94,71,44,30.02,29.99,29.95,10,10,8,13,4,22,0.00,1,Thunderstorm,324
2012-8-20,77,62,48,57,50,43,94,67,31,30.04,30.01,29.98,10,9,3,10,4,,0.00,0,,331
2012-8-21,78,63,48,57,49,45,93,65,32,30.13,30.10,30.04,10,10,7,9,5,,0.00,0,,36
2012-8-22,87,68,50,61,53,46,88,59,31,30.13,30.08,30.02,10,10,10,10,6,16,0.00,0,,146
2012-8-23,91,75,59,61,56,52,82,52,29,30.08,30.04,29.99,10,10,1,12,6,,0.00,0,,164
2012-8-24,91,78,66,61,57,54,73,49,28,30.05,30.00,29.97,10,10,8,17,8,22,0.00,1,,192
2012-8-25,91,76,60,63,58,54,82,53,31,30.05,30.01,29.96,10,10,10,21,8,25,0.00,0,,162
2012-8-26,73,68,62,70,66,61,94,85,73,30.04,30.02,29.98,10,10,3,10,5,,0.61,5,,140
2012-8-27,84,70,57,70,62,55,100,75,39,30.16,30.10,30.04,10,8,0,10,4,,0.00,0,,314
2012-8-28,84,72,60,68,62,57,88,71,40,30.17,30.12,30.06,10,10,10,7,3,,0.00,0,,49
2012-8-29,87,74,62,64,62,59,88,67,45,30.11,30.06,29.99,10,10,5,12,7,16,0.00,0,,142
2012-8-30,89,76,64,66,63,61,88,65,43,30.06,30.00,29.95,10,10,5,15,8,20,0.00,0,,177
2012-8-31,89,74,60,72,65,57,88,69,52,30.08,30.04,30.00,10,10,10,12,5,,0.00,0,,194